Taneyville, Missouri
Current Conditions -  °F | °C
As of 4:45 PM on Monday 24 Nov 2014 (Local Time) from KBBG Reporting Station
Few Clouds Few Clouds  
Wind Chill:   Ceiling: Unl
Heat Index:   Visibility: 10mi
Dew Point: -4°   Wind: 7mph
Humidity: 43%   Direction: 280°W
Pressure: 29.91"   Gusts: 18mph
Location:  36.74°N, 93.03°W
Report Text: KBBG 242245Z 28006G16KT 10SM FEW120 08/M04 A2991
Loading
Personal Weather Stations






























Interactive Weather Map New forecast layout! Learn more

10-Day Weather Forecast

Advertisements
Track Severe Weather on mobile